M I D A S
Marine Information and Data Acquisition System
Tripno 1674 of the Zeeleeuw from 2009-04-09 07:16:14 to 2009-04-09 14:23:04
Back to CruiseResearch ActivitiesStationsMapUnderway DataData graphs

EquipmentUnitsComment
TimeDGPSUTC
LatitudeDGPSDM.mWGS84
LongitudeDGPSDM.mWGS84
HeadingGyrodeg 
SOGDGPSknotsSpeed over ground
COGDGPSdegCourse over ground
DepthEcho soundermeters200 kHz
Missing or incorrect values are displayed as -999
Navigation data collected by the RV Zeeleeuw from 2009-04-09 07:33:28 to 2009-04-09 14:35:49
Time Latitude Longitude Heading SOG COG Depth
2009-04-09 07:34:37 51°13.68 2°55.9 111.8 3.3 294 -999
2009-04-09 07:35:37 51°13.692 2°55.81 90.4 3.5 272 -999
2009-04-09 07:36:36 51°13.691 2°55.743 75.1 1 266 11.3
2009-04-09 07:37:34 51°13.708 2°55.745 12.6 2.1 -999 11.1
2009-04-09 07:38:34 51°13.762 2°55.708 331.2 5.3 330 9
2009-04-09 07:39:34 51°13.865 2°55.612 333.8 8.4 331 9.7
2009-04-09 07:40:33 51°13.998 2°55.506 336.2 9.5 334 9.8
2009-04-09 07:41:34 51°14.146 2°55.389 334.3 9.9 332 9.6
2009-04-09 07:42:35 51°14.277 2°55.23 317.7 9.8 316 9.8
2009-04-09 07:43:33 51°14.393 2°55.042 317.8 11 317 9.8
2009-04-09 07:44:34 51°14.528 2°54.808 315.8 12.2 311 9.2
2009-04-09 07:45:34 51°14.659 2°54.561 315.6 12.2 310 9.1
2009-04-09 07:46:34 51°14.774 2°54.293 301.8 12.4 292 9.5
2009-04-09 07:47:33 51°14.827 2°53.979 286.6 12.6 282 8.6
2009-04-09 07:48:33 51°14.868 2°53.651 287.6 12.6 283 9
2009-04-09 07:49:34 51°14.937 2°53.332 298.5 12.4 293 9.2
2009-04-09 07:50:33 51°15.015 2°53.032 299.8 12.4 293 9.4
2009-04-09 07:51:33 51°15.098 2°52.73 299.9 12.4 293 9.8
2009-04-09 07:52:33 51°15.185 2°52.429 303.1 12.5 296 10.1
2009-04-09 07:53:34 51°15.277 2°52.123 302 12.7 294 10.7
2009-04-09 07:54:33 51°15.36 2°51.818 301.2 12.8 293 11.2
2009-04-09 07:55:33 51°15.444 2°51.511 300.4 12.6 294 11.7
2009-04-09 07:56:33 51°15.528 2°51.202 300.3 12.7 294 11.9
2009-04-09 07:57:34 51°15.611 2°50.885 295.2 12.8 284 12
2009-04-09 07:58:33 51°15.641 2°50.556 280.3 12.8 275 12.1
2009-04-09 07:59:33 51°15.658 2°50.218 279.3 12.8 274 12.2
2009-04-09 08:00:33 51°15.676 2°49.88 279.5 12.7 275 12.1
2009-04-09 08:01:33 51°15.694 2°49.546 279.6 12.6 274 11
2009-04-09 08:02:33 51°15.711 2°49.213 279.7 12.6 275 10
2009-04-09 08:03:33 51°15.727 2°48.88 279.4 12.6 275 10.1
2009-04-09 08:04:34 51°15.743 2°48.538 279.2 12.8 274 10.7
2009-04-09 08:05:32 51°15.758 2°48.21 279.4 12.9 274 11.8
2009-04-09 08:06:33 51°15.773 2°47.861 279.5 13 274 13.4
2009-04-09 08:07:33 51°15.789 2°47.517 279.4 13 274 14.5
2009-04-09 08:08:33 51°15.798 2°47.172 277.2 13 273 15.4
2009-04-09 08:09:34 51°15.816 2°46.823 279 12.9 275 16.2
2009-04-09 08:10:33 51°15.835 2°46.488 280.4 12.9 276 16
2009-04-09 08:11:33 51°15.855 2°46.147 279.5 12.8 275 15.4
2009-04-09 08:12:33 51°15.874 2°45.811 279.9 12.7 275 13.9
2009-04-09 08:13:33 51°15.893 2°45.477 279.3 12.6 274 11.7
2009-04-09 08:14:33 51°15.906 2°45.144 277.5 12.6 271 11.8
2009-04-09 08:15:33 51°15.917 2°44.811 280.1 12.6 274 11.2
2009-04-09 08:16:33 51°15.939 2°44.481 292.8 12.1 286 10.6
2009-04-09 08:17:33 51°16.039 2°44.212 315.8 11.7 309 10.7
2009-04-09 08:18:34 51°16.182 2°44 327.7 11.6 320 11.4
2009-04-09 08:19:33 51°16.325 2°43.8 327.9 11.7 318 13.6
2009-04-09 08:20:33 51°16.473 2°43.598 328.9 11.6 320 14.1
2009-04-09 08:21:33 51°16.618 2°43.391 324.9 11.8 315 13
2009-04-09 08:22:34 51°16.762 2°43.168 325.2 12 315 11.7
2009-04-09 08:23:33 51°16.884 2°42.917 313.4 12.3 304 11.6
2009-04-09 08:24:33 51°16.989 2°42.634 305.5 12.5 296 8.8
2009-04-09 08:25:34 51°17.081 2°42.326 302.5 12.8 295 11.7
2009-04-09 08:26:33 51°17.14 2°42.003 287.3 13 281 21.1
2009-04-09 08:27:33 51°17.175 2°41.659 281.3 13.3 275 23
2009-04-09 08:28:33 51°17.192 2°41.306 279.7 13.4 275 23.3
2009-04-09 08:29:34 51°17.211 2°40.945 280.6 13.5 275 22.8
2009-04-09 08:30:33 51°17.226 2°40.594 281 13.5 274 21
2009-04-09 08:31:33 51°17.244 2°40.236 281.3 13.5 275 17.4
2009-04-09 08:32:34 51°17.265 2°39.874 282 13.5 275 13.1
2009-04-09 08:33:34 51°17.286 2°39.519 281.5 13.3 275 12.3
2009-04-09 08:34:34 51°17.301 2°39.167 279.2 13.4 275 12.7
2009-04-09 08:35:33 51°17.32 2°38.817 280.2 13.5 275 22.1
2009-04-09 08:36:33 51°17.337 2°38.458 278.6 13.6 274 26.1
2009-04-09 08:37:33 51°17.356 2°38.097 278.1 13.6 274 26.7
2009-04-09 08:38:34 51°17.376 2°37.733 280.3 13.5 275 26.6
2009-04-09 08:39:33 51°17.394 2°37.383 279.6 13.4 274 26.8
2009-04-09 08:40:33 51°17.409 2°37.026 280.2 13.5 274 26.4
2009-04-09 08:41:33 51°17.411 2°36.664 273.6 13.7 268 24.4
2009-04-09 08:42:33 51°17.407 2°36.301 275.1 13.6 269 19.5
2009-04-09 08:43:34 51°17.411 2°35.937 278.4 13.4 273 14.9
2009-04-09 08:44:33 51°17.426 2°35.591 282.3 13 277 12
2009-04-09 08:45:33 51°17.449 2°35.247 282.9 12.9 277 12.2
2009-04-09 08:46:33 51°17.483 2°34.91 285.9 12.9 280 12.9
2009-04-09 08:47:34 51°17.524 2°34.567 285.8 13.2 281 16.8
2009-04-09 08:48:33 51°17.518 2°34.231 258.9 12.8 256 23.2
2009-04-09 08:49:33 51°17.401 2°33.949 223.4 12.9 222 24
2009-04-09 08:50:34 51°17.226 2°33.738 216.1 13.1 219 22.6
2009-04-09 08:51:34 51°17.061 2°33.508 224 13.2 227 23.2
2009-04-09 08:52:34 51°16.914 2°33.251 227.1 13.1 228 24.2
2009-04-09 08:53:33 51°16.774 2°32.993 228.8 13.1 229 24.7
2009-04-09 08:54:33 51°16.631 2°32.731 228.1 13.1 229 25.2
2009-04-09 08:55:33 51°16.49 2°32.467 229.5 13 230 26.2
2009-04-09 08:56:33 51°16.349 2°32.202 228.6 13.1 229 26.4
2009-04-09 08:57:33 51°16.205 2°31.941 229.3 13.2 230 26.5
2009-04-09 08:58:33 51°16.062 2°31.675 229.7 13.2 230 26.9
2009-04-09 08:59:33 51°15.92 2°31.408 229.8 13.2 230 27
2009-04-09 09:00:33 51°15.779 2°31.138 229.9 13.2 230 27.2
2009-04-09 09:01:33 51°15.633 2°30.876 227 13.1 224 27.4
2009-04-09 09:02:34 51°15.448 2°30.687 202.9 13.1 204 27.3
2009-04-09 09:03:33 51°15.255 2°30.534 204.9 13.2 207 26.4
2009-04-09 09:04:33 51°15.06 2°30.38 204.8 13.1 207 24.7
2009-04-09 09:05:33 51°14.867 2°30.216 207.1 13 208 22.1
2009-04-09 09:06:33 51°14.676 2°30.056 207.1 12.9 208 18.2
2009-04-09 09:07:34 51°14.484 2°29.895 206.8 12.5 208 15.9
2009-04-09 09:08:33 51°14.329 2°29.787 187.5 7.3 184 15.4
2009-04-09 09:09:34 51°14.266 2°29.86 99.3 4.1 99 13.6
2009-04-09 09:10:34 51°14.287 2°29.983 63.6 5.6 64 11.2
2009-04-09 09:11:34 51°14.329 2°30.101 56.1 4.6 58 9.9
2009-04-09 09:12:34 51°14.375 2°30.171 23.3 3.4 25 10.6
2009-04-09 09:13:33 51°14.42 2°30.212 22.2 3 21 11.6
2009-04-09 09:14:34 51°14.465 2°30.248 33.5 2.7 32 11.3
2009-04-09 09:15:34 51°14.489 2°30.273 34.4 0.6 48 11.2
2009-04-09 09:16:34 51°14.492 2°30.28 44.8 0.3 68 11.2
2009-04-09 09:17:33 51°14.493 2°30.287 55.8 0.3 91 11.3
2009-04-09 09:18:33 51°14.487 2°30.274 64.7 2.5 242 4.6
2009-04-09 09:19:37 51°14.456 2°30.206 47.8 3 226 -999
2009-04-09 09:20:37 51°14.418 2°30.16 28.5 2.2 210 -999
2009-04-09 09:21:36 51°14.448 2°30.161 4.1 4.7 3 9.9
2009-04-09 09:22:34 51°14.545 2°30.155 356.9 6.8 356 10.5
2009-04-09 09:23:34 51°14.655 2°30.152 4.1 6.1 3 14.1
2009-04-09 09:24:33 51°14.743 2°30.178 18.6 5 18 16.1
2009-04-09 09:25:34 51°14.813 2°30.235 33.5 4.5 35 17
2009-04-09 09:26:34 51°14.866 2°30.314 45.7 4.4 47 18.3
2009-04-09 09:27:34 51°14.92 2°30.391 37.8 4.3 39 18.8
2009-04-09 09:28:33 51°14.977 2°30.455 26.5 3.8 22 21.2
2009-04-09 09:29:34 51°15.024 2°30.427 316.2 3 304 23.5
2009-04-09 09:30:34 51°15.023 2°30.347 250.5 3.3 244 24.8
2009-04-09 09:31:33 51°14.98 2°30.299 187.4 3.6 189 24.1
2009-04-09 09:32:33 51°14.907 2°30.297 176.6 4.7 181 21.6
2009-04-09 09:33:33 51°14.834 2°30.284 192.1 4.2 193 16.9
2009-04-09 09:34:34 51°14.769 2°30.245 208.5 4 206 14.7
2009-04-09 09:35:33 51°14.714 2°30.189 218.3 4 216 15.7
2009-04-09 09:36:34 51°14.657 2°30.132 210.8 4 208 15.5
2009-04-09 09:37:33 51°14.598 2°30.09 204.1 3.9 201 13.8
2009-04-09 09:38:34 51°14.535 2°30.053 205.1 3.9 202 14.1
2009-04-09 09:39:33 51°14.477 2°30.011 211.9 3.9 208 14.1
2009-04-09 09:40:33 51°14.419 2°29.963 212.7 3.9 207 14
2009-04-09 09:41:33 51°14.361 2°29.921 207.4 3.8 201 14.6
2009-04-09 09:42:33 51°14.3 2°29.884 205.9 3.9 200 14.4
2009-04-09 09:43:34 51°14.24 2°29.842 214.9 3.8 208 14.5
2009-04-09 09:44:33 51°14.185 2°29.791 218.3 3.9 210 14.8
2009-04-09 09:45:34 51°14.124 2°29.744 209.9 4 204 14.7
2009-04-09 09:46:34 51°14.065 2°29.7 216.5 3.9 208 15
2009-04-09 09:47:34 51°14.01 2°29.646 220 3.8 212 15.3
2009-04-09 09:48:34 51°13.955 2°29.595 218 3.8 210 15.8
2009-04-09 09:49:34 51°13.904 2°29.538 227.8 3.7 220 16.1
2009-04-09 09:50:33 51°13.853 2°29.504 191.4 3.3 177 16.3
2009-04-09 09:51:33 51°13.808 2°29.547 132.8 3.3 121 15.2
2009-04-09 09:52:34 51°13.806 2°29.643 63.8 3.9 70 11.6
2009-04-09 09:53:34 51°13.85 2°29.711 2.3 3.4 16 11.1
2009-04-09 09:54:34 51°13.909 2°29.706 341.2 4 353 12.3
2009-04-09 09:55:34 51°13.984 2°29.7 356.3 4.8 6 14.3
2009-04-09 09:56:34 51°14.061 2°29.752 20.4 5.2 28 13.9
2009-04-09 09:57:34 51°14.135 2°29.821 23.2 5 33 13.6
2009-04-09 09:58:34 51°14.204 2°29.886 16.5 4.5 28 13.5
2009-04-09 09:59:33 51°14.265 2°29.932 12.4 3.9 25 13.8
2009-04-09 10:00:34 51°14.321 2°29.974 12.3 3.4 26 13.4
2009-04-09 10:01:34 51°14.371 2°30.011 8 3.3 24 12.8
2009-04-09 10:02:34 51°14.42 2°30.047 7.8 3.2 24 12.3
2009-04-09 10:03:34 51°14.471 2°30.084 9.3 3.4 25 12.5
2009-04-09 10:04:34 51°14.524 2°30.126 10.4 3.6 28 11.4
2009-04-09 10:05:34 51°14.577 2°30.172 11.9 3.6 29 12.6
2009-04-09 10:06:34 51°14.631 2°30.215 10.8 3.6 26 13.5
2009-04-09 10:07:34 51°14.684 2°30.257 10.2 3.5 25 13.8
2009-04-09 10:08:34 51°14.738 2°30.297 7.7 3.6 24 13.1
2009-04-09 10:09:34 51°14.792 2°30.334 4.5 3.6 22 12.3
2009-04-09 10:10:34 51°14.848 2°30.37 6.9 3.6 24 14.8
2009-04-09 10:11:34 51°14.903 2°30.414 14.1 3.7 28 18.7
2009-04-09 10:12:34 51°14.956 2°30.459 16.7 3.6 29 21.8
2009-04-09 10:13:34 51°15.005 2°30.515 30.1 3.7 40 22
2009-04-09 10:14:34 51°15.051 2°30.596 49.4 4.4 56 20.8
2009-04-09 10:15:34 51°15.081 2°30.707 74.1 4.7 76 18.1
2009-04-09 10:16:34 51°15.092 2°30.83 76.8 4.6 77 15.6
2009-04-09 10:17:34 51°15.128 2°30.912 16.8 3.4 31 16.7
2009-04-09 10:18:34 51°15.171 2°30.909 308.6 2.5 317 19.4
2009-04-09 10:19:34 51°15.168 2°30.848 243.3 2.9 234 20.3
2009-04-09 10:20:34 51°15.128 2°30.777 235.4 4 227 18.6
2009-04-09 10:21:34 51°15.079 2°30.694 233.2 4.4 225 19.2
2009-04-09 10:22:34 51°15.026 2°30.614 230.5 4.5 222 19.4
2009-04-09 10:23:34 51°14.968 2°30.538 224.7 4.5 214 20.1
2009-04-09 10:24:34 51°14.902 2°30.493 213.5 4 201 19.7
2009-04-09 10:25:34 51°14.848 2°30.449 224 3.5 210 17
2009-04-09 10:26:34 51°14.797 2°30.407 220.1 3.4 204 14.2
2009-04-09 10:27:34 51°14.746 2°30.369 225.7 3.4 209 13.5
2009-04-09 10:28:34 51°14.697 2°30.325 224.4 3.4 205 12.3
2009-04-09 10:29:34 51°14.643 2°30.291 222.9 3.4 204 12.9
2009-04-09 10:30:34 51°14.596 2°30.247 231.9 3.3 214 13.6
2009-04-09 10:31:34 51°14.546 2°30.201 224 3.6 206 13.3
2009-04-09 10:32:34 51°14.489 2°30.165 219.3 3.6 200 12.1
2009-04-09 10:33:34 51°14.437 2°30.129 227.5 3.2 207 12
2009-04-09 10:34:34 51°14.393 2°30.088 229.5 3 209 12.3
2009-04-09 10:35:34 51°14.347 2°30.054 224.9 3.1 203 12.1
2009-04-09 10:36:34 51°14.301 2°30.02 230.4 2.9 209 12.6
2009-04-09 10:37:34 51°14.259 2°29.983 227.7 2.9 206 13.3
2009-04-09 10:38:34 51°14.215 2°29.95 224.9 3 205 13.7
2009-04-09 10:39:34 51°14.17 2°29.915 226.6 3 206 13.8
2009-04-09 10:40:34 51°14.125 2°29.879 226.2 3.1 206 13.6
2009-04-09 10:41:34 51°14.079 2°29.843 226.9 3.1 206 13.4
2009-04-09 10:42:34 51°14.034 2°29.807 227.5 3 208 13.5
2009-04-09 10:43:33 51°13.992 2°29.77 232.2 2.9 214 14
2009-04-09 10:44:34 51°13.948 2°29.742 210.3 3.3 179 13.7
2009-04-09 10:45:34 51°13.897 2°29.804 140.4 4.7 118 13.2
2009-04-09 10:46:34 51°13.889 2°29.919 82.2 4.3 82 13.4
2009-04-09 10:47:34 51°13.915 2°30.017 29.9 3.8 53 13.1
2009-04-09 10:48:34 51°13.956 2°30.066 336.9 2.4 19 13.6
2009-04-09 10:49:34 51°13.998 2°30.042 307.2 4 327 12.3
2009-04-09 10:50:34 51°14.062 2°29.997 315.8 3.9 334 13
2009-04-09 10:51:34 51°14.118 2°29.956 327.4 4 352 13.3
2009-04-09 10:52:34 51°14.191 2°29.981 -999 5 23 12.7
2009-04-09 10:53:34 51°14.266 2°30.053 11.8 5.2 33 11.7
2009-04-09 10:54:34 51°14.334 2°30.116 2 4.4 27 12.6
2009-04-09 10:55:34 51°14.396 2°30.163 354.4 4 23 12.6
2009-04-09 10:56:34 51°14.458 2°30.206 0.9 4.1 26 13.9
2009-04-09 10:57:34 51°14.519 2°30.257 4 4.1 28 13.8
2009-04-09 10:58:34 51°14.579 2°30.301 355.3 3.9 22 13.7
2009-04-09 10:59:34 51°14.64 2°30.343 0.1 4.1 25 14.1
2009-04-09 11:00:34 51°14.703 2°30.39 2.9 4.2 25 14.6
2009-04-09 11:01:34 51°14.766 2°30.437 2.4 4.2 25 14.6
2009-04-09 11:02:34 51°14.829 2°30.485 4.8 4.2 26 16.6
2009-04-09 11:03:34 51°14.892 2°30.537 7.8 4.3 29 18.1
2009-04-09 11:04:34 51°14.955 2°30.597 15.7 4.4 33 18.4
2009-04-09 11:05:34 51°15.015 2°30.668 25.2 4.6 41 18.5
2009-04-09 11:06:34 51°15.069 2°30.758 41.4 4.7 51 17.7
2009-04-09 11:07:34 51°15.114 2°30.864 56 4.8 60 19.6
2009-04-09 11:08:34 51°15.148 2°30.98 69.7 4.9 69 18.5
2009-04-09 11:09:34 51°15.174 2°31.103 69 5.1 68 15.6
2009-04-09 11:10:34 51°15.222 2°31.202 15.8 4.3 35 15.5
2009-04-09 11:11:34 51°15.276 2°31.227 318.7 2.7 356 16.1
2009-04-09 11:12:34 51°15.3 2°31.208 263.6 1 285 17.3
2009-04-09 11:13:34 51°15.28 2°31.163 233.8 3.4 228 18
2009-04-09 11:14:34 51°15.23 2°31.08 231.3 4.9 225 18.8
2009-04-09 11:15:34 51°15.17 2°30.986 228.6 5.2 221 17.9
2009-04-09 11:16:34 51°15.106 2°30.893 230.2 5.2 223 18.4
2009-04-09 11:17:34 51°15.042 2°30.798 229.8 5.2 224 17.3
2009-04-09 11:18:34 51°14.978 2°30.705 230.5 5.2 224 16.4
2009-04-09 11:19:34 51°14.91 2°30.625 219.2 4.5 206 16.5
2009-04-09 11:20:34 51°14.851 2°30.589 217.1 3.4 201 15.5
2009-04-09 11:21:34 51°14.802 2°30.558 219.6 3.2 204 15.2
2009-04-09 11:22:34 51°14.754 2°30.523 221.1 3.2 207 14.5
2009-04-09 11:23:34 51°14.706 2°30.485 222.5 3.2 208 14
2009-04-09 11:24:34 51°14.658 2°30.447 221.6 3.2 206 14.4
2009-04-09 11:25:34 51°14.609 2°30.411 219.3 3.3 200 14.6
2009-04-09 11:26:34 51°14.555 2°30.386 211.9 3.6 193 14.5
2009-04-09 11:27:34 51°14.497 2°30.36 214.8 3.6 198 14.5
2009-04-09 11:28:34 51°14.448 2°30.316 231.4 3.3 220 13.9
2009-04-09 11:29:34 51°14.417 2°30.251 246 3 238 14.2
2009-04-09 11:30:34 51°14.373 2°30.199 219.3 4 204 14.5
2009-04-09 11:31:34 51°14.308 2°30.15 220.7 4.5 206 12.9
2009-04-09 11:32:34 51°14.242 2°30.096 222.2 4.4 209 13.1
2009-04-09 11:33:34 51°14.177 2°30.047 220.4 4.2 204 12.3
2009-04-09 11:34:34 51°14.115 2°30.001 222.9 4 205 12.8
2009-04-09 11:35:34 51°14.057 2°29.954 222.6 3.9 206 13.9
2009-04-09 11:36:34 51°13.997 2°29.907 221.3 4 207 13.9
2009-04-09 11:37:34 51°13.948 2°29.846 242.7 3.4 238 12.6
2009-04-09 11:38:34 51°13.932 2°29.75 251 4.2 247 13.4
2009-04-09 11:39:34 51°13.892 2°29.649 236.4 4.5 220 15.7
2009-04-09 11:40:34 51°13.817 2°29.676 157.2 6.1 133 12.1
2009-04-09 11:41:34 51°13.8 2°29.823 80.3 5.5 76 13.9
2009-04-09 11:42:34 51°13.847 2°29.927 16.1 4.6 36 13.6
2009-04-09 11:43:34 51°13.913 2°29.962 334.2 3.7 1 13.5
2009-04-09 11:44:34 51°13.974 2°29.949 332.8 4.2 1 14
2009-04-09 11:45:34 51°14.05 2°29.993 13.4 5.5 31 13.4
2009-04-09 11:46:34 51°14.125 2°30.077 21.1 5.5 37 13.5
2009-04-09 11:47:34 51°14.199 2°30.141 2.5 4.8 23 13.5
2009-04-09 11:48:34 51°14.271 2°30.182 359.9 4.5 20 14.3
2009-04-09 11:49:34 51°14.34 2°30.228 9.6 4.6 26 14.6
2009-04-09 11:50:34 51°14.411 2°30.3 24.7 5.4 35 13.7
2009-04-09 11:51:34 51°14.489 2°30.365 10.3 5.4 25 14.5
2009-04-09 11:52:34 51°14.572 2°30.431 13.4 5.6 28 14.3
2009-04-09 11:53:34 51°14.654 2°30.496 11 5.3 27 13.8
2009-04-09 11:54:34 51°14.732 2°30.56 10.8 5.2 26 14.2
2009-04-09 11:55:34 51°14.809 2°30.619 8.5 4.9 24 14.4
2009-04-09 11:56:34 51°14.88 2°30.67 9.3 4.6 28 14.3
2009-04-09 11:57:34 51°14.945 2°30.732 18.9 4.5 30 15.6
2009-04-09 11:58:34 51°15.006 2°30.803 32 4.6 40 16.4
2009-04-09 11:59:34 51°15.061 2°30.898 53.1 5.1 55 16.3
2009-04-09 12:00:34 51°15.104 2°31.02 65.6 5.4 64 15.4
2009-04-09 12:01:34 51°15.142 2°31.152 63 5.7 60 14.4
2009-04-09 12:02:34 51°15.208 2°31.245 3.5 4.8 21 15
2009-04-09 12:03:34 51°15.267 2°31.242 298 2.6 332 15.9
2009-04-09 12:04:34 51°15.274 2°31.201 239.2 2.2 234 17.8
2009-04-09 12:05:34 51°15.225 2°31.161 213.5 4.1 204 17.9
2009-04-09 12:06:34 51°15.171 2°31.094 227.3 4.4 219 16.1
2009-04-09 12:07:34 51°15.112 2°31.019 226.2 4.6 219 15.9
2009-04-09 12:08:34 51°15.05 2°30.946 224.4 4.6 218 16.5
2009-04-09 12:09:34 51°14.994 2°30.863 229.3 4.6 224 15.6
2009-04-09 12:10:34 51°14.933 2°30.787 219.9 4.7 210 15.9
2009-04-09 12:11:34 51°14.861 2°30.734 213.5 4.9 203 14.5
2009-04-09 12:12:34 51°14.799 2°30.689 216.4 3.5 203 13.2
2009-04-09 12:13:34 51°14.752 2°30.653 221.9 2.9 208 13.1
2009-04-09 12:14:34 51°14.712 2°30.617 221.2 2.8 208 13.5
2009-04-09 12:15:34 51°14.667 2°30.585 216.4 3.2 204 13.6
2009-04-09 12:16:34 51°14.615 2°30.546 216.6 3.7 205 13.4
2009-04-09 12:17:34 51°14.56 2°30.5 220.3 3.8 211 13.3
2009-04-09 12:18:34 51°14.507 2°30.448 220.1 3.9 211 13.9
2009-04-09 12:19:34 51°14.449 2°30.393 219.5 4.2 210 14.4
2009-04-09 12:20:34 51°14.386 2°30.341 216.3 4.3 205 13.5
2009-04-09 12:21:34 51°14.322 2°30.291 217.8 4.3 207 13.7
2009-04-09 12:22:34 51°14.261 2°30.236 220 4.2 210 14.3
2009-04-09 12:23:34 51°14.199 2°30.186 216.9 4.2 205 13.9
2009-04-09 12:24:34 51°14.135 2°30.142 216.3 4.2 203 13.4
2009-04-09 12:25:34 51°14.072 2°30.096 217.3 4.2 206 13.8
2009-04-09 12:26:34 51°14.009 2°30.049 216.5 4.2 203 12.5
2009-04-09 12:27:34 51°13.949 2°29.998 227.9 3.8 223 13.3
2009-04-09 12:28:34 51°13.929 2°29.908 261 3.9 270 13.7
2009-04-09 12:29:34 51°13.946 2°29.802 278.9 4.3 295 12.9
2009-04-09 12:30:34 51°13.99 2°29.702 298.5 5.1 318 15.8
2009-04-09 12:31:34 51°14.075 2°29.64 328.9 6.2 349 17.4
2009-04-09 12:32:34 51°14.182 2°29.633 331.4 5.5 349 18.2
2009-04-09 12:33:34 51°14.218 2°29.578 247.2 1.8 252 19.5
2009-04-09 12:34:34 51°14.184 2°29.591 166.8 3.8 131 18.8
2009-04-09 12:35:34 51°14.168 2°29.728 98.1 6.6 82 17.3
2009-04-09 12:36:34 51°14.217 2°29.901 54.7 7.2 53 14.8
2009-04-09 12:37:34 51°14.294 2°30.019 31.9 6 40 12.8
2009-04-09 12:38:34 51°14.366 2°30.114 27.9 5.4 39 12.5
2009-04-09 12:39:34 51°14.432 2°30.186 6 4.2 28 13.5
2009-04-09 12:40:34 51°14.493 2°30.231 356.5 4.1 22 13.9
2009-04-09 12:41:34 51°14.566 2°30.284 17.2 5.3 30 13.6
2009-04-09 12:42:34 51°14.64 2°30.384 46.8 6.3 48 14.6
2009-04-09 12:43:34 51°14.714 2°30.477 4.1 5 18 13.9
2009-04-09 12:44:34 51°14.778 2°30.469 294.9 2.8 327 14.8
2009-04-09 12:45:34 51°14.785 2°30.433 224.4 1.5 207 14.8
2009-04-09 12:46:34 51°14.736 2°30.416 216.5 3.9 212 14.5
2009-04-09 12:47:34 51°14.67 2°30.361 217.8 4.9 211 14.2
2009-04-09 12:48:34 51°14.6 2°30.307 212 4.6 204 13.5
2009-04-09 12:49:34 51°14.543 2°30.251 220.8 3.6 213 13.8
2009-04-09 12:50:34 51°14.492 2°30.21 215.3 3.3 206 13.6
2009-04-09 12:51:34 51°14.445 2°30.168 219.6 3.2 209 12.4
2009-04-09 12:52:34 51°14.399 2°30.13 220 3 209 12.2
2009-04-09 12:53:34 51°14.357 2°30.088 222.4 2.9 211 12.3
2009-04-09 12:54:34 51°14.321 2°30.061 218.9 1.9 197 12
2009-04-09 12:55:34 51°14.301 2°30.063 212.9 0.9 139 11.9
2009-04-09 12:56:34 51°14.297 2°30.089 203.4 1.2 89 12.4
2009-04-09 12:57:34 51°14.301 2°30.123 202.5 1.3 70 12.8
2009-04-09 12:58:34 51°14.304 2°30.156 198.3 1.5 124 12.9
2009-04-09 12:59:34 51°14.283 2°30.244 115.4 5.5 92 14
2009-04-09 13:00:34 51°14.327 2°30.373 35.1 5.4 39 12.8
2009-04-09 13:01:34 51°14.398 2°30.397 318.5 3.8 345 13.9
2009-04-09 13:02:34 51°14.441 2°30.338 278.1 3.5 302 13.7
2009-04-09 13:03:34 51°14.496 2°30.29 332.3 4.7 -999 13.6
2009-04-09 13:04:34 51°14.564 2°30.342 36.8 3.4 44 14.2
2009-04-09 13:05:34 51°14.593 2°30.391 69.3 2.1 47 14.4
2009-04-09 13:06:34 51°14.617 2°30.43 75.6 2 43 14
2009-04-09 13:07:34 51°14.642 2°30.467 76.2 2.1 43 13.6
2009-04-09 13:08:34 51°14.669 2°30.504 73.6 2.2 40 13.3
2009-04-09 13:09:34 51°14.697 2°30.542 68.4 2.2 40 13.4
2009-04-09 13:10:34 51°14.725 2°30.58 67.6 2.1 41 13.6
2009-04-09 13:11:34 51°14.752 2°30.617 68.7 2.1 41 13.5
2009-04-09 13:12:34 51°14.779 2°30.657 67.8 2.4 45 12.9
2009-04-09 13:13:34 51°14.809 2°30.737 87.4 4.5 71 14.2
2009-04-09 13:14:34 51°14.826 2°30.887 89.9 7.1 78 12.1
2009-04-09 13:15:35 51°14.852 2°31.103 90.7 8.7 83 10.4
2009-04-09 13:16:34 51°14.859 2°31.339 95.2 9.5 88 10.7
2009-04-09 13:17:34 51°14.871 2°31.616 88.1 11.3 84 10.4
2009-04-09 13:18:34 51°14.892 2°31.926 87.9 11.8 84 11.3
2009-04-09 13:19:34 51°14.91 2°32.24 87.5 12.2 85 11.7
2009-04-09 13:20:34 51°14.934 2°32.578 85.7 13 84 13.8
2009-04-09 13:21:34 51°14.958 2°32.921 87.2 13 84 20.1
2009-04-09 13:22:34 51°14.961 2°33.262 100.5 12.8 97 24.9
2009-04-09 13:23:34 51°14.922 2°33.597 108 12.9 103 27.7
2009-04-09 13:24:34 51°14.871 2°33.927 109.8 12.8 104 28.5
2009-04-09 13:25:34 51°14.821 2°34.259 109 12.9 102 28.5
2009-04-09 13:26:34 51°14.773 2°34.591 109.5 12.9 102 27.6
2009-04-09 13:27:34 51°14.728 2°34.924 107.6 12.9 100 24.3
2009-04-09 13:28:34 51°14.696 2°35.264 107.3 13 99 21
2009-04-09 13:29:34 51°14.666 2°35.607 104.7 13.3 93 20.9
2009-04-09 13:30:34 51°14.658 2°35.964 99.7 13.6 92 18.8
2009-04-09 13:31:34 51°14.651 2°36.321 98.3 13.3 92 16.4
2009-04-09 13:32:34 51°14.639 2°36.668 99.4 13 94 12.5
2009-04-09 13:33:34 51°14.631 2°37.011 97.7 13 92 13.2
2009-04-09 13:34:34 51°14.619 2°37.356 99.7 13 95 13.4
2009-04-09 13:35:34 51°14.599 2°37.701 100.9 13.1 95 15.5
2009-04-09 13:36:34 51°14.582 2°38.046 100 13 94 17.9
2009-04-09 13:37:34 51°14.569 2°38.392 100.1 13 94 19
2009-04-09 13:38:34 51°14.557 2°38.739 99.4 13.1 94 19.3
2009-04-09 13:39:34 51°14.549 2°39.086 97.8 13 93 19.7
2009-04-09 13:40:34 51°14.54 2°39.431 98.8 13 93 16.7
2009-04-09 13:41:34 51°14.521 2°39.773 100.9 12.8 95 15.9
2009-04-09 13:42:34 51°14.503 2°40.11 97.3 12.7 92 15.4
2009-04-09 13:43:34 51°14.511 2°40.449 91.1 12.9 86 15.9
2009-04-09 13:44:34 51°14.528 2°40.789 90.3 12.9 85 15.9
2009-04-09 13:45:34 51°14.543 2°41.128 90.7 12.9 86 15.9
2009-04-09 13:46:35 51°14.551 2°41.475 93.8 12.9 89 16.4
2009-04-09 13:47:34 51°14.555 2°41.81 94.9 12.8 91 16.2
2009-04-09 13:48:34 51°14.558 2°42.153 93.5 12.9 90 17.8
2009-04-09 13:49:35 51°14.564 2°42.502 95 13.1 90 19.4
2009-04-09 13:50:34 51°14.57 2°42.845 93 13 87 20.2
2009-04-09 13:51:34 51°14.578 2°43.188 93.4 13 88 20.1
2009-04-09 13:52:34 51°14.579 2°43.532 95.8 13 89 19.4
2009-04-09 13:53:34 51°14.585 2°43.876 94 12.9 89 18.5
2009-04-09 13:54:34 51°14.592 2°44.22 91.2 12.9 85 17.9
2009-04-09 13:55:34 51°14.607 2°44.562 91.6 12.9 88 16.7
2009-04-09 13:56:34 51°14.619 2°44.904 92.3 12.9 86 15.3
2009-04-09 13:57:34 51°14.631 2°45.242 91.2 12.8 87 13.6
2009-04-09 13:58:34 51°14.643 2°45.576 92.1 12.5 87 11.7
2009-04-09 13:59:34 51°14.661 2°45.908 89.9 12.6 85 11
2009-04-09 14:00:34 51°14.68 2°46.242 89.4 12.7 85 11.9
2009-04-09 14:01:34 51°14.702 2°46.578 88 12.8 84 13.6
2009-04-09 14:02:34 51°14.717 2°46.914 91.3 12.7 88 15.2
2009-04-09 14:03:34 51°14.724 2°47.251 90.1 12.8 86 15.2
2009-04-09 14:04:34 51°14.736 2°47.589 89.4 12.8 87 14.7
2009-04-09 14:05:34 51°14.748 2°47.928 92.6 12.8 90 14
2009-04-09 14:06:34 51°14.754 2°48.265 93.2 12.7 90 14.1
2009-04-09 14:07:34 51°14.762 2°48.603 91.8 12.7 87 14.5
2009-04-09 14:08:34 51°14.774 2°48.94 90.1 12.7 86 14.7
2009-04-09 14:09:34 51°14.792 2°49.274 89.8 12.7 86 14.7
2009-04-09 14:10:34 51°14.807 2°49.61 90.1 12.7 86 14.8
2009-04-09 14:11:34 51°14.82 2°49.947 92.8 12.7 87 14.6
2009-04-09 14:12:34 51°14.831 2°50.283 92.8 12.7 87 14.4
2009-04-09 14:13:34 51°14.84 2°50.618 92.8 12.5 87 14.1
2009-04-09 14:14:34 51°14.848 2°50.95 92.3 12.5 88 13.8
2009-04-09 14:15:35 51°14.856 2°51.287 90.1 12.5 86 13.4
2009-04-09 14:16:34 51°14.871 2°51.612 89.1 12.4 86 12.9
2009-04-09 14:17:34 51°14.881 2°51.942 92.3 12.5 89 12.5
2009-04-09 14:18:34 51°14.886 2°52.274 91.6 12.5 88 12.4
2009-04-09 14:19:34 51°14.891 2°52.604 91.9 12.1 88 12.1
2009-04-09 14:20:34 51°14.872 2°52.906 106 11.2 103 12.1
2009-04-09 14:21:34 51°14.822 2°53.19 111.4 11 107 12
2009-04-09 14:22:34 51°14.766 2°53.466 111.3 11.3 106 12.4
2009-04-09 14:23:34 51°14.712 2°53.778 110.5 12.4 108 12.3
2009-04-09 14:24:34 51°14.646 2°54.091 115.2 12.4 111 13
2009-04-09 14:25:34 51°14.57 2°54.396 116.7 12.4 112 12.8
2009-04-09 14:26:34 51°14.485 2°54.692 121.1 12.2 117 12.8
2009-04-09 14:27:34 51°14.387 2°54.971 122.4 11.8 121 12.1
2009-04-09 14:28:34 51°14.283 2°55.215 128.4 10 128 12.8
2009-04-09 14:29:34 51°14.165 2°55.38 149.6 9.3 151 12.5
2009-04-09 14:30:34 51°14.027 2°55.485 154.2 9.2 155 12.5
2009-04-09 14:31:34 51°13.9 2°55.573 156.1 7.1 156 13
2009-04-09 14:32:34 51°13.797 2°55.661 146.1 7.4 143 12.3
2009-04-09 14:33:34 51°13.718 2°55.791 129.9 5.5 129 13.2
2009-04-09 14:34:34 51°13.676 2°55.888 119.9 3.8 116 10.1
2009-04-09 14:35:34 51°13.664 2°55.953 111.1 1.3 98 7.5